Atlantic - Newfoundland: Past 24 Hour Conditions

 

Stephenville Airport

01:30 AM NST 23 November 2014
This table is a summary of hourly weather conditions for the past 24 hours.
Date / Time
(NST)
Wind(knots) Conditions Visibility(km) Pressure(kPa) Air tempC) Relative humidity(%) Dew pointC) Wind Chill
23 November 2014
1:30 WSW 30 gust 37 Light Snow 3 100.4 1 77 -3 *
0:30 W 27 gust 35 Light Snow 3 100.4 0 87 -2 -8
22 November 2014
23:30 WSW 28 gust 39 Light Snow 2 100.5 0 87 -2 -9
22:30 WSW 25 gust 37 Light Snow 5 100.5 -1 82 -3 -9
21:30 WNW 15 gust 23 Light Snow 5 100.6 -2 83 -5 -9
20:30 W 20 gust 28 Light Snow 5 100.7 -3 81 -5 -11
19:30 W 19 gust 27 Light Snow 10 100.8 -3 76 -6 -10
18:30 W 19 gust 26 Light Snow 19 100.8 -3 68 -8 -11
17:30 W 22 gust 34 Light Snow 13 100.8 -3 65 -8 -11
16:30 W 21 gust 38 Light Snow 3 100.8 -3 84 -6 -12
15:30 W 22 Light Snow 3 100.8 -3 82 -6 -11
14:30 WNW 16 gust 27 Drifting Snow 19 100.8 -2 58 -9 -9
13:30 W 22 gust 32 Drifting Snow 24 100.9 -2 56 -10 -10
12:30 WNW 18 gust 28 Light Snow 0.2 100.9 -4 81 -6 -11
11:30 WNW 14 gust 30 Drifting Snow 16 100.9 -3 63 -9 -10
10:30 WNW 19 gust 36 Light Snowshower 8 100.9 -4 61 -10 -12
9:30 WNW 26 gust 34 Light Snowshower 8 100.8 -4 64 -10 -13
8:30 WNW 20 gust 28 Light Snowshower 13 100.8 -4 69 -9 -12
7:30 NW 17 gust 27 Drifting Snow 19 100.7 -4 65 -9 -12
6:30 NW 18 gust 25 Drifting Snow 19 100.7 -4 56 -12 -12
5:30 WNW 17 gust 30 Drifting Snow 19 100.6 -5 64 -10 -13
4:30 NW 21 gust 28 Drifting Snow 19 100.5 -5 65 -10 -13
3:30 NW 20 gust 30 Light Snowshower 5 100.4 -4 62 -11 -13
2:30 WNW 18 gust 33 Light Snowshower 5 100.4 -4 63 -10 -13
1:30 WNW 13 gust 27 Cloudy 19 100.3 -4 64 -10 -11
 
Map of Atlantic - Newfoundland marine weather areas Southwestern Grand Banks - 44138 Banquereau - 44139 Tail of the Bank - 44140 Nickerson Bank - 44251 Northeast Burgeo Bank - 44255 Blanc-Sablon Airport Cap Whittle Chevery Natashquan Airport Heath Point Miscou Island Grand Étang Ingonish Beach North Mountain St.Paul Island J.A. Douglas McCurdy Sydney Airport Charlottetown Airport East Point North Cape Argentia Bonavista Burgeo Cape Race Corner Brook Daniel's Harbour Englee Ferolle Point La Scie Port aux Basques Rocky Harbour Sagona Island St. Anthony Airport St. John's Int'l Airport St. Lawrence Stephenville Airport Twillingate Winterland Wreckhouse Cartwright Airport Mary's Harbour Grates Cove Pool's Island Marticot Island Long Pond Îles de la Madeleine Airport
Legend: buoyBuoy land stationLand Station